sensor_id;sensor_type;location;lat;lon;timestamp;pressure;altitude;pressure_sealevel;temperature;humidity
60852;BME280;48553;50.766;2.900;2023-06-14T00:02:09;100638.06;;;24.44;43.77
60852;BME280;48553;50.766;2.900;2023-06-14T00:05:09;100636.13;;;24.41;43.85
60852;BME280;48553;50.766;2.900;2023-06-14T00:08:13;100641.00;;;24.36;43.86
60852;BME280;48553;50.766;2.900;2023-06-14T00:11:13;100640.31;;;24.32;44.18
60852;BME280;48553;50.766;2.900;2023-06-14T00:14:14;100631.63;;;24.27;44.57
60852;BME280;48553;50.766;2.900;2023-06-14T00:17:14;100633.22;;;24.28;44.37
60852;BME280;48553;50.766;2.900;2023-06-14T00:20:16;100635.72;;;24.22;44.41
60852;BME280;48553;50.766;2.900;2023-06-14T00:23:17;100629.84;;;24.16;44.65
60852;BME280;48553;50.766;2.900;2023-06-14T00:26:18;100624.38;;;24.09;44.96
60852;BME280;48553;50.766;2.900;2023-06-14T00:29:18;100632.34;;;24.11;45.00
60852;BME280;48553;50.766;2.900;2023-06-14T00:32:18;100637.25;;;24.07;45.07
60852;BME280;48553;50.766;2.900;2023-06-14T00:35:19;100632.94;;;24.02;45.14
60852;BME280;48553;50.766;2.900;2023-06-14T00:38:20;100638.16;;;24.00;45.09
60852;BME280;48553;50.766;2.900;2023-06-14T00:41:21;100643.41;;;23.98;45.14
60852;BME280;48553;50.766;2.900;2023-06-14T00:44:21;100644.69;;;23.93;45.37
60852;BME280;48553;50.766;2.900;2023-06-14T00:47:22;100646.34;;;23.91;45.17
60852;BME280;48553;50.766;2.900;2023-06-14T00:50:23;100646.44;;;23.87;45.51
60852;BME280;48553;50.766;2.900;2023-06-14T00:53:24;100645.78;;;23.80;45.50
60852;BME280;48553;50.766;2.900;2023-06-14T00:56:25;100643.44;;;23.78;45.87
60852;BME280;48553;50.766;2.900;2023-06-14T00:59:26;100648.28;;;23.74;45.93
60852;BME280;48553;50.766;2.900;2023-06-14T01:02:26;100646.69;;;23.73;45.92
60852;BME280;48553;50.766;2.900;2023-06-14T01:05:27;100645.97;;;23.69;45.94
60852;BME280;48553;50.766;2.900;2023-06-14T01:08:47;100645.25;;;23.65;46.08
60852;BME280;48553;50.766;2.900;2023-06-14T01:12:24;100646.91;;;23.62;46.06
60852;BME280;48553;50.766;2.900;2023-06-14T01:15:30;100650.53;;;23.59;46.38
60852;BME280;48553;50.766;2.900;2023-06-14T01:18:31;100651.81;;;23.54;46.27
60852;BME280;48553;50.766;2.900;2023-06-14T01:21:32;100646.72;;;23.49;46.65
60852;BME280;48553;50.766;2.900;2023-06-14T01:24:41;100649.53;;;23.49;46.68
60852;BME280;48553;50.766;2.900;2023-06-14T01:27:45;100656.41;;;23.45;46.80
60852;BME280;48553;50.766;2.900;2023-06-14T01:30:50;100655.66;;;23.41;46.74
60852;BME280;48553;50.766;2.900;2023-06-14T01:33:52;100657.72;;;23.37;46.91
60852;BME280;48553;50.766;2.900;2023-06-14T01:36:53;100656.59;;;23.34;46.86
60852;BME280;48553;50.766;2.900;2023-06-14T01:39:57;100657.03;;;23.32;46.83
60852;BME280;48553;50.766;2.900;2023-06-14T01:42:58;100658.31;;;23.28;47.12
60852;BME280;48553;50.766;2.900;2023-06-14T01:46:00;100655.94;;;23.26;46.92
60852;BME280;48553;50.766;2.900;2023-06-14T01:49:00;100661.56;;;23.23;47.07
60852;BME280;48553;50.766;2.900;2023-06-14T01:52:01;100650.09;;;23.17;47.22
60852;BME280;48553;50.766;2.900;2023-06-14T01:55:02;100654.94;;;23.13;47.41
60852;BME280;48553;50.766;2.900;2023-06-14T01:58:03;100652.56;;;23.11;47.62
60852;BME280;48553;50.766;2.900;2023-06-14T02:01:04;100648.31;;;23.03;47.51
60852;BME280;48553;50.766;2.900;2023-06-14T02:04:05;100645.94;;;23.02;47.61
60852;BME280;48553;50.766;2.900;2023-06-14T02:07:06;100649.19;;;22.97;47.83
60852;BME280;48553;50.766;2.900;2023-06-14T02:10:07;100649.19;;;22.97;47.94
60852;BME280;48553;50.766;2.900;2023-06-14T02:13:07;100645.25;;;22.94;48.00
60852;BME280;48553;50.766;2.900;2023-06-14T02:16:07;100645.28;;;22.90;47.73
60852;BME280;48553;50.766;2.900;2023-06-14T02:19:08;100649.34;;;22.86;47.91
60852;BME280;48553;50.766;2.900;2023-06-14T02:22:08;100640.59;;;22.84;47.94
60852;BME280;48553;50.766;2.900;2023-06-14T02:25:09;100640.69;;;22.80;48.18
60852;BME280;48553;50.766;2.900;2023-06-14T02:28:10;100643.50;;;22.77;48.33
60852;BME280;48553;50.766;2.900;2023-06-14T02:31:10;100636.34;;;22.76;48.39
60852;BME280;48553;50.766;2.900;2023-06-14T02:34:11;100646.78;;;22.71;48.56
60852;BME280;48553;50.766;2.900;2023-06-14T02:37:11;100632.03;;;22.71;48.39
60852;BME280;48553;50.766;2.900;2023-06-14T02:40:13;100646.81;;;22.68;48.61
60852;BME280;48553;50.766;2.900;2023-06-14T02:43:13;100644.09;;;22.64;48.71
60852;BME280;48553;50.766;2.900;2023-06-14T02:46:14;100645.78;;;22.58;48.84
60852;BME280;48553;50.766;2.900;2023-06-14T02:49:15;100641.88;;;22.52;49.11
60852;BME280;48553;50.766;2.900;2023-06-14T02:52:15;100640.22;;;22.55;48.72
60852;BME280;48553;50.766;2.900;2023-06-14T02:55:16;100647.47;;;22.52;48.90
60852;BME280;48553;50.766;2.900;2023-06-14T02:58:16;100644.34;;;22.46;49.03
60852;BME280;48553;50.766;2.900;2023-06-14T03:01:18;100641.19;;;22.44;48.87
60852;BME280;48553;50.766;2.900;2023-06-14T03:04:19;100654.00;;;22.42;49.00
60852;BME280;48553;50.766;2.900;2023-06-14T03:07:21;100656.44;;;22.36;49.25
60852;BME280;48553;50.766;2.900;2023-06-14T03:10:23;100648.94;;;22.33;49.18
60852;BME280;48553;50.766;2.900;2023-06-14T03:13:23;100648.13;;;22.33;49.15
60852;BME280;48553;50.766;2.900;2023-06-14T03:16:24;100657.34;;;22.29;49.43
60852;BME280;48553;50.766;2.900;2023-06-14T03:19:24;100652.59;;;22.26;49.11
60852;BME280;48553;50.766;2.900;2023-06-14T03:22:26;100660.59;;;22.21;49.22
60852;BME280;48553;50.766;2.900;2023-06-14T03:25:26;100658.66;;;22.18;49.30
60852;BME280;48553;50.766;2.900;2023-06-14T03:28:29;100668.19;;;22.20;49.33
60852;BME280;48553;50.766;2.900;2023-06-14T03:31:30;100670.22;;;22.16;49.32
60852;BME280;48553;50.766;2.900;2023-06-14T03:34:33;100675.88;;;22.13;49.43
60852;BME280;48553;50.766;2.900;2023-06-14T03:37:34;100678.69;;;22.09;49.51
60852;BME280;48553;50.766;2.900;2023-06-14T03:40:35;100675.53;;;22.07;49.38
60852;BME280;48553;50.766;2.900;2023-06-14T03:43:35;100670.78;;;22.04;49.21
60852;BME280;48553;50.766;2.900;2023-06-14T03:46:36;100681.94;;;22.04;49.32
60852;BME280;48553;50.766;2.900;2023-06-14T03:49:36;100679.19;;;22.00;49.52
60852;BME280;48553;50.766;2.900;2023-06-14T03:52:37;100688.41;;;21.97;49.25
60852;BME280;48553;50.766;2.900;2023-06-14T03:55:37;100694.00;;;21.97;49.51
60852;BME280;48553;50.766;2.900;2023-06-14T03:58:38;100686.47;;;21.94;49.14
60852;BME280;48553;50.766;2.900;2023-06-14T04:01:38;100692.03;;;21.94;49.02
60852;BME280;48553;50.766;2.900;2023-06-14T04:04:46;100691.28;;;21.90;49.26
60852;BME280;48553;50.766;2.900;2023-06-14T04:07:48;100696.88;;;21.86;49.62
60852;BME280;48553;50.766;2.900;2023-06-14T04:10:51;100693.72;;;21.84;49.58
60852;BME280;48553;50.766;2.900;2023-06-14T04:13:51;100701.31;;;21.84;49.31
60852;BME280;48553;50.766;2.900;2023-06-14T04:16:54;100696.97;;;21.79;49.46
60852;BME280;48553;50.766;2.900;2023-06-14T04:19:54;100706.13;;;21.80;49.03
60852;BME280;48553;50.766;2.900;2023-06-14T04:22:56;100710.13;;;21.79;49.46
60852;BME280;48553;50.766;2.900;2023-06-14T04:25:57;100697.44;;;21.74;49.52
60852;BME280;48553;50.766;2.900;2023-06-14T04:29:02;100707.41;;;21.72;49.72
60852;BME280;48553;50.766;2.900;2023-06-14T04:32:03;100715.78;;;21.72;49.25
60852;BME280;48553;50.766;2.900;2023-06-14T04:35:07;100717.78;;;21.71;49.54
60852;BME280;48553;50.766;2.900;2023-06-14T04:38:07;100728.97;;;21.67;49.69
60852;BME280;48553;50.766;2.900;2023-06-14T04:41:11;100730.53;;;21.68;49.48
60852;BME280;48553;50.766;2.900;2023-06-14T04:44:11;100729.38;;;21.66;49.73
60852;BME280;48553;50.766;2.900;2023-06-14T04:47:13;100726.59;;;21.66;49.93
60852;BME280;48553;50.766;2.900;2023-06-14T04:50:14;100727.81;;;21.65;49.84
60852;BME280;48553;50.766;2.900;2023-06-14T04:53:15;100737.75;;;21.66;50.04
60852;BME280;48553;50.766;2.900;2023-06-14T04:56:15;100723.78;;;21.66;49.86
60852;BME280;48553;50.766;2.900;2023-06-14T04:59:17;100733.31;;;21.68;49.53
60852;BME280;48553;50.766;2.900;2023-06-14T05:02:24;100725.78;;;21.69;49.64
60852;BME280;48553;50.766;2.900;2023-06-14T05:05:24;100734.09;;;21.73;49.86
60852;BME280;48553;50.766;2.900;2023-06-14T05:08:25;100734.16;;;21.69;49.91
60852;BME280;48553;50.766;2.900;2023-06-14T05:11:26;100731.75;;;21.71;49.84
60852;BME280;48553;50.766;2.900;2023-06-14T05:14:27;100733.69;;;21.74;49.65
60852;BME280;48553;50.766;2.900;2023-06-14T05:17:27;100738.44;;;21.77;49.65
60852;BME280;48553;50.766;2.900;2023-06-14T05:20:28;100739.22;;;21.78;49.67
60852;BME280;48553;50.766;2.900;2023-06-14T05:23:28;100738.41;;;21.81;49.50
60852;BME280;48553;50.766;2.900;2023-06-14T05:26:29;100734.41;;;21.82;49.56
60852;BME280;48553;50.766;2.900;2023-06-14T05:29:30;100734.75;;;21.87;49.44
60852;BME280;48553;50.766;2.900;2023-06-14T05:32:30;100737.94;;;21.89;49.48
60852;BME280;48553;50.766;2.900;2023-06-14T05:35:31;100729.56;;;21.89;49.53
60852;BME280;48553;50.766;2.900;2023-06-14T05:38:31;100731.91;;;21.95;49.63
60852;BME280;48553;50.766;2.900;2023-06-14T05:41:32;100733.84;;;21.98;49.31
60852;BME280;48553;50.766;2.900;2023-06-14T05:44:32;100739.81;;;22.00;49.67
60852;BME280;48553;50.766;2.900;2023-06-14T05:47:33;100740.22;;;21.98;49.72
60852;BME280;48553;50.766;2.900;2023-06-14T05:50:33;100739.41;;;22.01;49.75
60852;BME280;48553;50.766;2.900;2023-06-14T05:53:34;100740.56;;;22.04;49.72
60852;BME280;48553;50.766;2.900;2023-06-14T05:56:35;100746.13;;;22.07;49.46
60852;BME280;48553;50.766;2.900;2023-06-14T05:59:35;100750.88;;;22.10;49.35
60852;BME280;48553;50.766;2.900;2023-06-14T06:02:36;100744.88;;;22.12;49.43
60852;BME280;48553;50.766;2.900;2023-06-14T06:05:36;100757.16;;;22.18;49.14
60852;BME280;48553;50.766;2.900;2023-06-14T06:08:37;100759.53;;;22.23;49.12
60852;BME280;48553;50.766;2.900;2023-06-14T06:11:37;100751.47;;;22.33;48.89
60852;BME280;48553;50.766;2.900;2023-06-14T06:14:38;100748.97;;;22.38;48.71
60852;BME280;48553;50.766;2.900;2023-06-14T06:17:39;100762.09;;;22.41;48.94
60852;BME280;48553;50.766;2.900;2023-06-14T06:20:39;100758.06;;;22.46;48.72
60852;BME280;48553;50.766;2.900;2023-06-14T06:23:39;100763.63;;;22.49;48.59
60852;BME280;48553;50.766;2.900;2023-06-14T06:26:40;100761.56;;;22.54;48.65
60852;BME280;48553;50.766;2.900;2023-06-14T06:29:42;100771.09;;;22.60;48.62
60852;BME280;48553;50.766;2.900;2023-06-14T06:32:43;100758.22;;;22.66;48.99
60852;BME280;48553;50.766;2.900;2023-06-14T06:35:44;100766.50;;;22.73;48.81
60852;BME280;48553;50.766;2.900;2023-06-14T06:38:44;100770.78;;;22.81;48.96
60852;BME280;48553;50.766;2.900;2023-06-14T06:41:44;100771.91;;;22.87;48.72
60852;BME280;48553;50.766;2.900;2023-06-14T06:44:45;100771.81;;;22.94;48.66
60852;BME280;48553;50.766;2.900;2023-06-14T06:47:45;100771.75;;;23.02;48.54
60852;BME280;48553;50.766;2.900;2023-06-14T06:50:46;100776.03;;;23.10;48.41
60852;BME280;48553;50.766;2.900;2023-06-14T06:53:54;100777.50;;;23.18;48.10
60852;BME280;48553;50.766;2.900;2023-06-14T06:56:55;100782.63;;;23.23;48.27
60852;BME280;48553;50.766;2.900;2023-06-14T06:59:56;100790.47;;;23.32;47.86
60852;BME280;48553;50.766;2.900;2023-06-14T07:02:57;100788.38;;;23.40;47.78
60852;BME280;48553;50.766;2.900;2023-06-14T07:05:57;100788.25;;;23.47;47.80
60852;BME280;48553;50.766;2.900;2023-06-14T07:08:58;100791.66;;;23.58;47.42
60852;BME280;48553;50.766;2.900;2023-06-14T07:12:01;100791.19;;;23.63;47.24
60852;BME280;48553;50.766;2.900;2023-06-14T07:15:02;100793.81;;;23.74;47.33
60852;BME280;48553;50.766;2.900;2023-06-14T07:18:02;100795.22;;;23.86;47.19
60852;BME280;48553;50.766;2.900;2023-06-14T07:21:03;100799.06;;;23.95;47.16
60852;BME280;48553;50.766;2.900;2023-06-14T07:24:07;100806.41;;;24.09;46.71
60852;BME280;48553;50.766;2.900;2023-06-14T07:27:08;100808.66;;;24.18;46.54
60852;BME280;48553;50.766;2.900;2023-06-14T07:30:09;100818.88;;;24.28;46.19
60852;BME280;48553;50.766;2.900;2023-06-14T07:33:10;100815.94;;;24.35;46.24
60852;BME280;48553;50.766;2.900;2023-06-14T07:36:12;100817.69;;;24.49;46.01
60852;BME280;48553;50.766;2.900;2023-06-14T07:39:12;100815.84;;;24.63;45.79
60852;BME280;48553;50.766;2.900;2023-06-14T07:42:13;100816.41;;;24.74;45.50
60852;BME280;48553;50.766;2.900;2023-06-14T07:45:14;100809.69;;;24.88;45.03
60852;BME280;48553;50.766;2.900;2023-06-14T07:48:14;100821.53;;;24.95;44.64
60852;BME280;48553;50.766;2.900;2023-06-14T07:51:15;100826.16;;;25.06;44.47
60852;BME280;48553;50.766;2.900;2023-06-14T07:54:15;100821.59;;;25.12;44.15
60852;BME280;48553;50.766;2.900;2023-06-14T07:57:16;100824.13;;;25.26;44.01
60852;BME280;48553;50.766;2.900;2023-06-14T08:00:17;100823.88;;;25.37;43.55
60852;BME280;48553;50.766;2.900;2023-06-14T08:03:18;100825.63;;;25.47;43.71
60852;BME280;48553;50.766;2.900;2023-06-14T08:06:19;100829.41;;;25.57;43.67
60852;BME280;48553;50.766;2.900;2023-06-14T08:09:20;100836.00;;;25.67;43.51
60852;BME280;48553;50.766;2.900;2023-06-14T08:12:20;100832.91;;;25.77;43.22
60852;BME280;48553;50.766;2.900;2023-06-14T08:15:21;100829.44;;;25.90;42.71
60852;BME280;48553;50.766;2.900;2023-06-14T08:18:21;100838.19;;;26.08;42.96
60852;BME280;48553;50.766;2.900;2023-06-14T08:21:22;100831.41;;;26.22;42.83
60852;BME280;48553;50.766;2.900;2023-06-14T08:24:22;100825.84;;;26.35;42.35
60852;BME280;48553;50.766;2.900;2023-06-14T08:27:27;100832.59;;;26.37;42.48
60852;BME280;48553;50.766;2.900;2023-06-14T08:30:27;100833.19;;;26.45;42.06
60852;BME280;48553;50.766;2.900;2023-06-14T08:33:28;100833.72;;;26.56;41.66
60852;BME280;48553;50.766;2.900;2023-06-14T08:36:28;100837.34;;;26.70;41.43
60852;BME280;48553;50.766;2.900;2023-06-14T08:39:29;100838.47;;;26.72;40.59
60852;BME280;48553;50.766;2.900;2023-06-14T08:42:29;100840.56;;;26.84;40.81
60852;BME280;48553;50.766;2.900;2023-06-14T08:45:31;100836.41;;;27.02;40.11
60852;BME280;48553;50.766;2.900;2023-06-14T08:48:31;100830.00;;;27.14;39.86
60852;BME280;48553;50.766;2.900;2023-06-14T08:51:33;100834.53;;;27.24;39.90
60852;BME280;48553;50.766;2.900;2023-06-14T08:54:36;100828.59;;;27.35;39.62
60852;BME280;48553;50.766;2.900;2023-06-14T08:57:44;100830.84;;;27.53;39.90
60852;BME280;48553;50.766;2.900;2023-06-14T09:00:46;100827.53;;;27.67;39.76
60852;BME280;48553;50.766;2.900;2023-06-14T09:03:46;100826.28;;;27.81;39.34
60852;BME280;48553;50.766;2.900;2023-06-14T09:06:48;100829.78;;;27.85;39.12
60852;BME280;48553;50.766;2.900;2023-06-14T09:10:07;100831.66;;;28.01;38.45
60852;BME280;48553;50.766;2.900;2023-06-14T09:13:08;100834.25;;;28.08;38.45
60852;BME280;48553;50.766;2.900;2023-06-14T09:16:09;100829.16;;;28.16;37.86
60852;BME280;48553;50.766;2.900;2023-06-14T09:19:14;100831.00;;;28.32;37.37
60852;BME280;48553;50.766;2.900;2023-06-14T09:22:21;100844.38;;;28.41;37.52
60852;BME280;48553;50.766;2.900;2023-06-14T09:25:21;100839.75;;;28.47;37.29
60852;BME280;48553;50.766;2.900;2023-06-14T09:28:31;100838.13;;;28.59;37.08
60852;BME280;48553;50.766;2.900;2023-06-14T09:31:32;100838.72;;;28.76;36.35
60852;BME280;48553;50.766;2.900;2023-06-14T09:34:34;100838.56;;;28.79;35.97
60852;BME280;48553;50.766;2.900;2023-06-14T09:37:36;100833.91;;;28.85;35.89
60852;BME280;48553;50.766;2.900;2023-06-14T09:40:38;100844.28;;;28.88;35.58
60852;BME280;48553;50.766;2.900;2023-06-14T09:43:38;100835.06;;;28.97;35.50
60852;BME280;48553;50.766;2.900;2023-06-14T09:46:39;100837.94;;;29.06;35.00
60852;BME280;48553;50.766;2.900;2023-06-14T09:49:40;100840.06;;;29.15;35.27
60852;BME280;48553;50.766;2.900;2023-06-14T09:52:43;100844.00;;;29.18;34.95
60852;BME280;48553;50.766;2.900;2023-06-14T09:55:44;100848.13;;;29.26;34.82
60852;BME280;48553;50.766;2.900;2023-06-14T09:58:45;100850.81;;;29.39;34.30
60852;BME280;48553;50.766;2.900;2023-06-14T10:01:47;100852.44;;;29.49;34.37
60852;BME280;48553;50.766;2.900;2023-06-14T10:05:05;100839.63;;;29.66;33.74
60852;BME280;48553;50.766;2.900;2023-06-14T10:08:17;100845.66;;;29.77;34.41
60852;BME280;48553;50.766;2.900;2023-06-14T10:11:18;100838.94;;;29.93;33.93
60852;BME280;48553;50.766;2.900;2023-06-14T10:14:19;100848.81;;;29.89;33.49
60852;BME280;48553;50.766;2.900;2023-06-14T10:20:44;100836.91;;;30.03;33.41
60852;BME280;48553;50.766;2.900;2023-06-14T10:23:48;100835.19;;;30.15;33.66
60852;BME280;48553;50.766;2.900;2023-06-14T10:26:59;100836.47;;;30.23;33.06
60852;BME280;48553;50.766;2.900;2023-06-14T10:30:03;100832.06;;;30.31;32.74
60852;BME280;48553;50.766;2.900;2023-06-14T10:33:07;100841.03;;;30.39;32.66
60852;BME280;48553;50.766;2.900;2023-06-14T10:36:30;100835.38;;;30.48;32.84
60852;BME280;48553;50.766;2.900;2023-06-14T10:39:44;100835.84;;;30.47;32.31
60852;BME280;48553;50.766;2.900;2023-06-14T10:42:51;100836.16;;;30.49;32.39
60852;BME280;48553;50.766;2.900;2023-06-14T10:49:17;100836.28;;;30.82;32.11
60852;BME280;48553;50.766;2.900;2023-06-14T10:52:26;100828.38;;;30.95;32.27
60852;BME280;48553;50.766;2.900;2023-06-14T10:55:34;100830.28;;;30.98;32.44
60852;BME280;48553;50.766;2.900;2023-06-14T10:58:35;100836.38;;;31.06;31.96
60852;BME280;48553;50.766;2.900;2023-06-14T11:01:37;100833.41;;;31.00;31.84
60852;BME280;48553;50.766;2.900;2023-06-14T11:11:08;100821.13;;;31.46;31.67
60852;BME280;48553;50.766;2.900;2023-06-14T11:14:10;100825.53;;;31.47;31.90
60852;BME280;48553;50.766;2.900;2023-06-14T11:17:12;100818.66;;;31.63;31.24
60852;BME280;48553;50.766;2.900;2023-06-14T11:20:13;100815.19;;;31.92;31.36
60852;BME280;48553;50.766;2.900;2023-06-14T11:23:16;100812.25;;;31.87;31.60
60852;BME280;48553;50.766;2.900;2023-06-14T11:26:24;100814.66;;;32.03;31.58
60852;BME280;48553;50.766;2.900;2023-06-14T11:29:29;100806.94;;;32.03;31.22
60852;BME280;48553;50.766;2.900;2023-06-14T11:32:31;100799.63;;;32.12;30.91
60852;BME280;48553;50.766;2.900;2023-06-14T11:35:31;100805.31;;;32.12;30.73
60852;BME280;48553;50.766;2.900;2023-06-14T11:38:36;100810.13;;;32.20;30.51
60852;BME280;48553;50.766;2.900;2023-06-14T11:41:41;100802.53;;;32.41;30.22
60852;BME280;48553;50.766;2.900;2023-06-14T11:44:42;100795.69;;;32.48;29.87
60852;BME280;48553;50.766;2.900;2023-06-14T11:47:42;100795.09;;;32.59;30.44
60852;BME280;48553;50.766;2.900;2023-06-14T11:50:43;100798.34;;;32.52;30.78
60852;BME280;48553;50.766;2.900;2023-06-14T11:53:43;100804.31;;;32.54;31.00
60852;BME280;48553;50.766;2.900;2023-06-14T11:56:44;100792.34;;;32.50;30.51
60852;BME280;48553;50.766;2.900;2023-06-14T11:59:45;100796.69;;;32.60;30.15
60852;BME280;48553;50.766;2.900;2023-06-14T12:02:56;100791.00;;;32.60;30.24
60852;BME280;48553;50.766;2.900;2023-06-14T12:06:06;100788.44;;;32.77;30.10
60852;BME280;48553;50.766;2.900;2023-06-14T12:09:07;100786.41;;;32.77;30.40
60852;BME280;48553;50.766;2.900;2023-06-14T12:12:12;100790.22;;;32.89;29.95
60852;BME280;48553;50.766;2.900;2023-06-14T12:15:13;100786.19;;;32.96;30.20
60852;BME280;48553;50.766;2.900;2023-06-14T12:18:13;100787.16;;;32.93;30.21
60852;BME280;48553;50.766;2.900;2023-06-14T12:21:14;100791.47;;;32.88;29.80
60852;BME280;48553;50.766;2.900;2023-06-14T12:24:15;100795.50;;;32.81;29.21
60852;BME280;48553;50.766;2.900;2023-06-14T12:27:16;100790.91;;;32.69;30.26
60852;BME280;48553;50.766;2.900;2023-06-14T12:30:19;100785.53;;;32.71;30.14
60852;BME280;48553;50.766;2.900;2023-06-14T12:33:19;100791.28;;;32.77;29.74
60852;BME280;48553;50.766;2.900;2023-06-14T12:36:19;100795.00;;;32.83;29.55
60852;BME280;48553;50.766;2.900;2023-06-14T12:39:20;100784.94;;;32.82;29.87
60852;BME280;48553;50.766;2.900;2023-06-14T12:42:21;100787.66;;;33.06;29.91
60852;BME280;48553;50.766;2.900;2023-06-14T12:45:21;100784.22;;;33.02;29.67
60852;BME280;48553;50.766;2.900;2023-06-14T12:48:23;100786.78;;;33.15;28.97
60852;BME280;48553;50.766;2.900;2023-06-14T12:51:24;100787.34;;;33.04;30.09
60852;BME280;48553;50.766;2.900;2023-06-14T12:54:25;100789.72;;;33.05;29.37
60852;BME280;48553;50.766;2.900;2023-06-14T12:57:25;100788.53;;;32.97;29.98
60852;BME280;48553;50.766;2.900;2023-06-14T13:00:26;100785.13;;;32.93;29.27
60852;BME280;48553;50.766;2.900;2023-06-14T13:03:26;100790.22;;;32.89;28.52
60852;BME280;48553;50.766;2.900;2023-06-14T13:06:27;100790.81;;;32.78;29.20
60852;BME280;48553;50.766;2.900;2023-06-14T13:09:29;100796.78;;;32.80;30.03
60852;BME280;48553;50.766;2.900;2023-06-14T13:12:30;100792.47;;;32.85;28.93
60852;BME280;48553;50.766;2.900;2023-06-14T13:15:30;100798.72;;;32.74;29.62
60852;BME280;48553;50.766;2.900;2023-06-14T13:18:30;100797.19;;;32.73;29.34
60852;BME280;48553;50.766;2.900;2023-06-14T13:21:31;100784.63;;;32.95;28.57
60852;BME280;48553;50.766;2.900;2023-06-14T13:24:31;100792.56;;;33.05;28.80
60852;BME280;48553;50.766;2.900;2023-06-14T13:27:32;100793.13;;;32.95;29.10
60852;BME280;48553;50.766;2.900;2023-06-14T13:30:33;100792.47;;;32.85;29.33
60852;BME280;48553;50.766;2.900;2023-06-14T13:33:33;100793.34;;;32.76;29.30
60852;BME280;48553;50.766;2.900;2023-06-14T13:36:34;100790.72;;;32.58;30.19
60852;BME280;48553;50.766;2.900;2023-06-14T13:39:34;100794.00;;;32.41;30.75
60852;BME280;48553;50.766;2.900;2023-06-14T13:42:37;100791.44;;;32.29;30.96
60852;BME280;48553;50.766;2.900;2023-06-14T13:45:37;100791.66;;;32.25;30.33
60852;BME280;48553;50.766;2.900;2023-06-14T13:48:38;100787.34;;;32.30;31.07
60852;BME280;48553;50.766;2.900;2023-06-14T13:51:38;100790.66;;;32.28;30.29
60852;BME280;48553;50.766;2.900;2023-06-14T13:54:39;100794.09;;;32.32;30.23
60852;BME280;48553;50.766;2.900;2023-06-14T13:57:39;100788.41;;;32.32;30.65
60852;BME280;48553;50.766;2.900;2023-06-14T14:00:40;100799.47;;;32.30;29.77
60852;BME280;48553;50.766;2.900;2023-06-14T14:03:40;100800.81;;;32.20;30.44
60852;BME280;48553;50.766;2.900;2023-06-14T14:06:41;100796.59;;;32.15;29.66
60852;BME280;48553;50.766;2.900;2023-06-14T14:09:41;100791.81;;;32.21;30.56
60852;BME280;48553;50.766;2.900;2023-06-14T14:12:43;100792.22;;;32.29;29.58
60852;BME280;48553;50.766;2.900;2023-06-14T14:15:43;100784.78;;;32.32;29.74
60852;BME280;48553;50.766;2.900;2023-06-14T14:18:45;100789.88;;;32.28;29.82
60852;BME280;48553;50.766;2.900;2023-06-14T14:21:46;100789.06;;;32.27;29.44
60852;BME280;48553;50.766;2.900;2023-06-14T14:24:46;100794.25;;;32.14;30.43
60852;BME280;48553;50.766;2.900;2023-06-14T14:27:47;100792.97;;;32.00;30.94
60852;BME280;48553;50.766;2.900;2023-06-14T14:30:47;100797.69;;;31.94;30.39
60852;BME280;48553;50.766;2.900;2023-06-14T14:33:48;100792.97;;;31.91;30.66
60852;BME280;48553;50.766;2.900;2023-06-14T14:36:48;100802.16;;;31.86;31.13
60852;BME280;48553;50.766;2.900;2023-06-14T14:39:49;100796.31;;;31.89;30.67
60852;BME280;48553;50.766;2.900;2023-06-14T14:42:49;100798.41;;;31.79;31.38
60852;BME280;48553;50.766;2.900;2023-06-14T14:45:50;100791.66;;;31.77;31.14
60852;BME280;48553;50.766;2.900;2023-06-14T14:48:50;100784.38;;;31.85;29.76
60852;BME280;48553;50.766;2.900;2023-06-14T14:51:50;100791.97;;;31.79;30.12
60852;BME280;48553;50.766;2.900;2023-06-14T14:54:51;100783.22;;;31.68;30.64
60852;BME280;48553;50.766;2.900;2023-06-14T14:57:51;100778.16;;;31.72;28.76
60852;BME280;48553;50.766;2.900;2023-06-14T15:00:52;100782.22;;;31.80;28.71
60852;BME280;48553;50.766;2.900;2023-06-14T15:03:52;100785.34;;;31.82;28.91
60852;BME280;48553;50.766;2.900;2023-06-14T15:06:53;100790.63;;;31.65;29.61
60852;BME280;48553;50.766;2.900;2023-06-14T15:09:54;100778.22;;;31.62;29.48
60852;BME280;48553;50.766;2.900;2023-06-14T15:12:55;100776.38;;;31.59;29.72
60852;BME280;48553;50.766;2.900;2023-06-14T15:15:55;100789.72;;;31.59;28.57
60852;BME280;48553;50.766;2.900;2023-06-14T15:18:56;100792.56;;;31.59;28.71
60852;BME280;48553;50.766;2.900;2023-06-14T15:21:56;100794.97;;;31.51;29.60
60852;BME280;48553;50.766;2.900;2023-06-14T15:24:59;100789.97;;;31.46;29.75
60852;BME280;48553;50.766;2.900;2023-06-14T15:27:59;100795.97;;;31.39;29.16
60852;BME280;48553;50.766;2.900;2023-06-14T15:31:01;100791.22;;;31.45;29.05
60852;BME280;48553;50.766;2.900;2023-06-14T15:34:01;100790.66;;;31.41;29.74
60852;BME280;48553;50.766;2.900;2023-06-14T15:37:03;100794.56;;;31.44;29.25
60852;BME280;48553;50.766;2.900;2023-06-14T15:40:05;100791.88;;;31.40;29.69
60852;BME280;48553;50.766;2.900;2023-06-14T15:43:05;100788.78;;;31.29;30.13
60852;BME280;48553;50.766;2.900;2023-06-14T15:46:06;100794.56;;;31.34;29.46
60852;BME280;48553;50.766;2.900;2023-06-14T15:49:10;100789.69;;;31.35;30.13
60852;BME280;48553;50.766;2.900;2023-06-14T15:52:10;100799.16;;;31.32;30.13
60852;BME280;48553;50.766;2.900;2023-06-14T15:55:11;100797.94;;;31.24;30.45
60852;BME280;48553;50.766;2.900;2023-06-14T15:58:11;100805.81;;;31.19;30.14
60852;BME280;48553;50.766;2.900;2023-06-14T16:01:12;100802.00;;;31.22;29.64
60852;BME280;48553;50.766;2.900;2023-06-14T16:04:12;100803.16;;;31.16;30.54